sensor_id;sensor_type;location;lat;lon;timestamp;pressure;altitude;pressure_sealevel;temperature;humidity
74778;BME280;63298;53.164;8.610;2023-11-19T00:01:42;100845.03;;;7.68;87.37
74778;BME280;63298;53.164;8.610;2023-11-19T00:04:08;100859.97;;;7.79;86.73
74778;BME280;63298;53.164;8.610;2023-11-19T00:06:33;100840.13;;;7.70;86.75
74778;BME280;63298;53.164;8.610;2023-11-19T00:08:58;100847.97;;;7.73;87.04
74778;BME280;63298;53.164;8.610;2023-11-19T00:11:24;100827.44;;;7.76;87.04
74778;BME280;63298;53.164;8.610;2023-11-19T00:13:49;100826.56;;;7.82;86.96
74778;BME280;63298;53.164;8.610;2023-11-19T00:16:14;100832.03;;;7.89;86.99
74778;BME280;63298;53.164;8.610;2023-11-19T00:18:40;100835.63;;;7.89;87.30
74778;BME280;63298;53.164;8.610;2023-11-19T00:21:08;100812.00;;;7.81;87.50
74778;BME280;63298;53.164;8.610;2023-11-19T00:23:34;100801.22;;;7.80;87.23
74778;BME280;63298;53.164;8.610;2023-11-19T00:25:59;100803.94;;;7.87;86.34
74778;BME280;63298;53.164;8.610;2023-11-19T00:28:25;100794.25;;;7.84;87.13
74778;BME280;63298;53.164;8.610;2023-11-19T00:30:50;100799.25;;;7.94;86.88
74778;BME280;63298;53.164;8.610;2023-11-19T00:33:15;100788.09;;;7.89;86.78
74778;BME280;63298;53.164;8.610;2023-11-19T00:35:41;100804.69;;;8.00;87.26
74778;BME280;63298;53.164;8.610;2023-11-19T00:38:06;100799.19;;;8.00;87.07
74778;BME280;63298;53.164;8.610;2023-11-19T00:40:32;100799.66;;;7.97;87.22
74778;BME280;63298;53.164;8.610;2023-11-19T00:42:57;100786.38;;;7.94;87.01
74778;BME280;63298;53.164;8.610;2023-11-19T00:45:22;100790.09;;;8.06;86.58
74778;BME280;63298;53.164;8.610;2023-11-19T00:47:48;100767.75;;;7.96;87.21
74778;BME280;63298;53.164;8.610;2023-11-19T00:50:13;100766.03;;;8.02;86.80
74778;BME280;63298;53.164;8.610;2023-11-19T00:52:39;100767.88;;;8.08;87.35
74778;BME280;63298;53.164;8.610;2023-11-19T00:55:05;100760.41;;;8.15;87.19
74778;BME280;63298;53.164;8.610;2023-11-19T00:57:31;100727.75;;;8.07;87.10
74778;BME280;63298;53.164;8.610;2023-11-19T00:59:56;100731.94;;;8.09;86.87
74778;BME280;63298;53.164;8.610;2023-11-19T01:02:22;100734.69;;;8.09;87.17
74778;BME280;63298;53.164;8.610;2023-11-19T01:04:47;100744.09;;;8.20;87.22
74778;BME280;63298;53.164;8.610;2023-11-19T01:07:12;100719.88;;;8.10;87.30
74778;BME280;63298;53.164;8.610;2023-11-19T01:09:38;100717.97;;;8.11;86.99
74778;BME280;63298;53.164;8.610;2023-11-19T01:12:04;100718.78;;;8.18;87.21
74778;BME280;63298;53.164;8.610;2023-11-19T01:14:30;100729.03;;;8.29;87.00
74778;BME280;63298;53.164;8.610;2023-11-19T01:16:55;100711.56;;;8.23;87.08
74778;BME280;63298;53.164;8.610;2023-11-19T01:19:21;100718.47;;;8.33;87.00
74778;BME280;63298;53.164;8.610;2023-11-19T01:21:47;100705.38;;;8.28;87.26
74778;BME280;63298;53.164;8.610;2023-11-19T01:24:12;100701.13;;;8.32;86.93
74778;BME280;63298;53.164;8.610;2023-11-19T01:26:41;100710.16;;;8.39;87.05
74778;BME280;63298;53.164;8.610;2023-11-19T01:29:06;100692.44;;;8.35;87.46
74778;BME280;63298;53.164;8.610;2023-11-19T01:31:34;100693.66;;;8.39;86.68
74778;BME280;63298;53.164;8.610;2023-11-19T01:34:00;100700.31;;;8.50;87.06
74778;BME280;63298;53.164;8.610;2023-11-19T01:36:25;100683.22;;;8.48;87.28
74778;BME280;63298;53.164;8.610;2023-11-19T01:38:53;100689.78;;;8.47;87.66
74778;BME280;63298;53.164;8.610;2023-11-19T01:41:19;100665.88;;;8.47;86.89
74778;BME280;63298;53.164;8.610;2023-11-19T01:43:44;100675.72;;;8.55;87.44
74778;BME280;63298;53.164;8.610;2023-11-19T01:46:09;100674.19;;;8.59;87.87
74778;BME280;63298;53.164;8.610;2023-11-19T01:48:37;100682.00;;;8.62;86.95
74778;BME280;63298;53.164;8.610;2023-11-19T01:51:05;100673.50;;;8.63;87.08
74778;BME280;63298;53.164;8.610;2023-11-19T01:53:31;100660.59;;;8.64;87.33
74778;BME280;63298;53.164;8.610;2023-11-19T01:55:57;100665.13;;;8.77;87.04
74778;BME280;63298;53.164;8.610;2023-11-19T01:58:23;100644.53;;;8.68;87.21
74778;BME280;63298;53.164;8.610;2023-11-19T02:00:48;100651.28;;;8.83;87.88
74778;BME280;63298;53.164;8.610;2023-11-19T02:03:14;100645.50;;;8.91;87.89
74778;BME280;63298;53.164;8.610;2023-11-19T02:05:40;100643.25;;;9.00;88.89
74778;BME280;63298;53.164;8.610;2023-11-19T02:08:06;100639.09;;;9.09;88.03
74778;BME280;63298;53.164;8.610;2023-11-19T02:10:31;100616.50;;;9.07;87.68
74778;BME280;63298;53.164;8.610;2023-11-19T02:12:58;100633.81;;;9.26;88.83
74778;BME280;63298;53.164;8.610;2023-11-19T02:15:23;100614.16;;;9.22;87.66
74778;BME280;63298;53.164;8.610;2023-11-19T02:17:49;100599.22;;;9.30;88.94
74778;BME280;63298;53.164;8.610;2023-11-19T02:20:14;100618.53;;;9.41;88.35
74778;BME280;63298;53.164;8.610;2023-11-19T02:22:42;100590.25;;;9.34;89.40
74778;BME280;63298;53.164;8.610;2023-11-19T02:25:15;100600.59;;;9.50;89.09
74778;BME280;63298;53.164;8.610;2023-11-19T02:27:58;100592.66;;;9.42;89.98
74778;BME280;63298;53.164;8.610;2023-11-19T02:30:24;100599.66;;;9.57;88.44
74778;BME280;63298;53.164;8.610;2023-11-19T02:32:50;100608.06;;;9.62;89.45
74778;BME280;63298;53.164;8.610;2023-11-19T02:35:18;100585.63;;;9.58;89.55
74778;BME280;63298;53.164;8.610;2023-11-19T02:37:43;100570.81;;;9.59;90.07
74778;BME280;63298;53.164;8.610;2023-11-19T02:40:08;100582.91;;;9.70;89.65
74778;BME280;63298;53.164;8.610;2023-11-19T02:42:34;100569.50;;;9.73;89.48
74778;BME280;63298;53.164;8.610;2023-11-19T02:45:00;100566.28;;;9.76;90.80
74778;BME280;63298;53.164;8.610;2023-11-19T02:47:25;100571.19;;;9.86;90.08
74778;BME280;63298;53.164;8.610;2023-11-19T02:49:50;100576.81;;;9.91;89.53
74778;BME280;63298;53.164;8.610;2023-11-19T02:52:19;100560.41;;;9.84;89.69
74778;BME280;63298;53.164;8.610;2023-11-19T02:54:44;100569.50;;;9.96;89.63
74778;BME280;63298;53.164;8.610;2023-11-19T02:57:10;100558.00;;;10.00;90.16
74778;BME280;63298;53.164;8.610;2023-11-19T02:59:38;100550.69;;;10.05;89.93
74778;BME280;63298;53.164;8.610;2023-11-19T03:02:07;100552.97;;;10.08;90.62
74778;BME280;63298;53.164;8.610;2023-11-19T03:04:33;100547.69;;;10.07;90.19
74778;BME280;63298;53.164;8.610;2023-11-19T03:07:01;100526.75;;;10.06;90.14
74778;BME280;63298;53.164;8.610;2023-11-19T03:09:26;100544.47;;;10.10;90.59
74778;BME280;63298;53.164;8.610;2023-11-19T03:11:52;100532.09;;;10.12;90.44
74778;BME280;63298;53.164;8.610;2023-11-19T03:14:17;100525.53;;;10.13;89.30
74778;BME280;63298;53.164;8.610;2023-11-19T03:16:45;100548.19;;;10.27;90.46
74778;BME280;63298;53.164;8.610;2023-11-19T03:19:10;100532.84;;;10.19;89.74
74778;BME280;63298;53.164;8.610;2023-11-19T03:21:36;100537.16;;;10.27;89.77
74778;BME280;63298;53.164;8.610;2023-11-19T03:24:01;100537.88;;;10.22;91.25
74778;BME280;63298;53.164;8.610;2023-11-19T03:26:27;100546.03;;;10.29;90.82
74778;BME280;63298;53.164;8.610;2023-11-19T03:28:53;100546.13;;;10.34;90.83
74778;BME280;63298;53.164;8.610;2023-11-19T03:31:18;100546.81;;;10.41;90.04
74778;BME280;63298;53.164;8.610;2023-11-19T03:33:44;100526.22;;;10.32;90.13
74778;BME280;63298;53.164;8.610;2023-11-19T03:36:09;100554.13;;;10.47;90.25
74778;BME280;63298;53.164;8.610;2023-11-19T03:38:34;100523.34;;;10.38;90.55
74778;BME280;63298;53.164;8.610;2023-11-19T03:41:02;100526.44;;;10.42;91.04
74778;BME280;63298;53.164;8.610;2023-11-19T03:43:35;100524.63;;;10.48;91.16
74778;BME280;63298;53.164;8.610;2023-11-19T03:46:00;100526.31;;;10.49;91.04
74778;BME280;63298;53.164;8.610;2023-11-19T03:48:25;100531.44;;;10.57;91.36
74778;BME280;63298;53.164;8.610;2023-11-19T03:50:51;100510.72;;;10.54;90.65
74778;BME280;63298;53.164;8.610;2023-11-19T03:53:16;100518.16;;;10.54;90.50
74778;BME280;63298;53.164;8.610;2023-11-19T03:55:41;100523.78;;;10.59;90.69
74778;BME280;63298;53.164;8.610;2023-11-19T03:58:07;100525.19;;;10.61;90.92
74778;BME280;63298;53.164;8.610;2023-11-19T04:00:32;100521.25;;;10.57;90.99
74778;BME280;63298;53.164;8.610;2023-11-19T04:02:58;100511.06;;;10.58;90.92
74778;BME280;63298;53.164;8.610;2023-11-19T04:05:23;100517.75;;;10.62;90.41
74778;BME280;63298;53.164;8.610;2023-11-19T04:07:48;100518.59;;;10.62;90.66
74778;BME280;63298;53.164;8.610;2023-11-19T04:10:14;100516.69;;;10.63;90.80
74778;BME280;63298;53.164;8.610;2023-11-19T04:12:39;100530.91;;;10.71;90.52
74778;BME280;63298;53.164;8.610;2023-11-19T04:15:05;100515.69;;;10.69;90.60
74778;BME280;63298;53.164;8.610;2023-11-19T04:17:31;100534.59;;;10.77;90.50
74778;BME280;63298;53.164;8.610;2023-11-19T04:19:56;100523.84;;;10.75;90.49
74778;BME280;63298;53.164;8.610;2023-11-19T04:22:22;100520.25;;;10.75;90.20
74778;BME280;63298;53.164;8.610;2023-11-19T04:24:47;100503.91;;;10.73;90.81
74778;BME280;63298;53.164;8.610;2023-11-19T04:27:13;100508.09;;;10.76;90.90
74778;BME280;63298;53.164;8.610;2023-11-19T04:29:39;100524.94;;;10.91;90.83
74778;BME280;63298;53.164;8.610;2023-11-19T04:32:05;100500.84;;;10.87;90.51
74778;BME280;63298;53.164;8.610;2023-11-19T04:34:30;100497.53;;;10.85;90.18
74778;BME280;63298;53.164;8.610;2023-11-19T04:36:55;100500.72;;;10.93;90.94
74778;BME280;63298;53.164;8.610;2023-11-19T04:39:21;100494.69;;;10.96;90.61
74778;BME280;63298;53.164;8.610;2023-11-19T04:44:12;100487.56;;;11.00;91.03
74778;BME280;63298;53.164;8.610;2023-11-19T04:46:40;100496.31;;;11.09;91.36
74778;BME280;63298;53.164;8.610;2023-11-19T04:49:05;100500.00;;;11.14;91.22
74778;BME280;63298;53.164;8.610;2023-11-19T04:51:30;100486.34;;;11.08;91.97
74778;BME280;63298;53.164;8.610;2023-11-19T04:53:56;100483.34;;;11.09;91.54
74778;BME280;63298;53.164;8.610;2023-11-19T04:56:21;100478.91;;;11.08;91.88
74778;BME280;63298;53.164;8.610;2023-11-19T04:58:47;100477.00;;;11.09;91.46
74778;BME280;63298;53.164;8.610;2023-11-19T05:01:15;100497.06;;;11.21;91.58
74778;BME280;63298;53.164;8.610;2023-11-19T05:03:41;100492.38;;;11.21;91.76
74778;BME280;63298;53.164;8.610;2023-11-19T05:06:06;100479.31;;;11.17;91.58
74778;BME280;63298;53.164;8.610;2023-11-19T05:08:32;100479.31;;;11.17;91.54
74778;BME280;63298;53.164;8.610;2023-11-19T05:10:57;100482.00;;;11.12;92.07
74778;BME280;63298;53.164;8.610;2023-11-19T05:13:23;100488.22;;;11.19;92.33
74778;BME280;63298;53.164;8.610;2023-11-19T05:15:48;100490.53;;;11.27;91.66
74778;BME280;63298;53.164;8.610;2023-11-19T05:18:14;100481.94;;;11.23;92.10
74778;BME280;63298;53.164;8.610;2023-11-19T05:20:39;100491.72;;;11.31;91.52
74778;BME280;63298;53.164;8.610;2023-11-19T05:23:05;100476.75;;;11.27;91.68
74778;BME280;63298;53.164;8.610;2023-11-19T05:25:30;100482.03;;;11.29;91.41
74778;BME280;63298;53.164;8.610;2023-11-19T05:27:55;100493.47;;;11.37;91.47
74778;BME280;63298;53.164;8.610;2023-11-19T05:30:21;100478.41;;;11.28;91.28
74778;BME280;63298;53.164;8.610;2023-11-19T05:32:46;100494.56;;;11.36;91.50
74778;BME280;63298;53.164;8.610;2023-11-19T05:35:14;100483.44;;;11.31;91.67
74778;BME280;63298;53.164;8.610;2023-11-19T05:37:40;100492.41;;;11.38;91.21
74778;BME280;63298;53.164;8.610;2023-11-19T05:40:06;100482.44;;;11.37;91.22
74778;BME280;63298;53.164;8.610;2023-11-19T05:42:31;100478.84;;;11.37;91.06
74778;BME280;63298;53.164;8.610;2023-11-19T05:44:57;100477.66;;;11.33;91.09
74778;BME280;63298;53.164;8.610;2023-11-19T05:47:22;100485.03;;;11.44;91.14
74778;BME280;63298;53.164;8.610;2023-11-19T05:49:47;100491.41;;;11.44;91.60
74778;BME280;63298;53.164;8.610;2023-11-19T05:52:13;100490.81;;;11.42;91.74
74778;BME280;63298;53.164;8.610;2023-11-19T05:54:38;100483.69;;;11.46;92.44
74778;BME280;63298;53.164;8.610;2023-11-19T05:57:05;100475.91;;;11.43;91.60
74778;BME280;63298;53.164;8.610;2023-11-19T05:59:30;100497.56;;;11.51;91.53
74778;BME280;63298;53.164;8.610;2023-11-19T06:01:57;100501.03;;;11.58;91.42
74778;BME280;63298;53.164;8.610;2023-11-19T06:04:22;100487.69;;;11.55;91.34
74778;BME280;63298;53.164;8.610;2023-11-19T06:06:48;100493.97;;;11.51;91.47
74778;BME280;63298;53.164;8.610;2023-11-19T06:09:13;100498.16;;;11.53;91.57
74778;BME280;63298;53.164;8.610;2023-11-19T06:11:39;100517.31;;;11.60;91.29
74778;BME280;63298;53.164;8.610;2023-11-19T06:14:04;100510.47;;;11.62;91.67
74778;BME280;63298;53.164;8.610;2023-11-19T06:16:29;100498.50;;;11.57;91.28
74778;BME280;63298;53.164;8.610;2023-11-19T06:18:55;100507.09;;;11.60;90.67
74778;BME280;63298;53.164;8.610;2023-11-19T06:21:20;100524.38;;;11.67;90.79
74778;BME280;63298;53.164;8.610;2023-11-19T06:23:46;100519.31;;;11.64;90.96
74778;BME280;63298;53.164;8.610;2023-11-19T06:26:11;100513.22;;;11.62;90.96
74778;BME280;63298;53.164;8.610;2023-11-19T06:28:36;100507.63;;;11.57;91.43
74778;BME280;63298;53.164;8.610;2023-11-19T06:31:03;100504.09;;;11.62;90.97
74778;BME280;63298;53.164;8.610;2023-11-19T06:33:28;100505.94;;;11.56;91.58
74778;BME280;63298;53.164;8.610;2023-11-19T06:35:56;100524.38;;;11.67;91.44
74778;BME280;63298;53.164;8.610;2023-11-19T06:38:22;100505.78;;;11.63;91.47
74778;BME280;63298;53.164;8.610;2023-11-19T06:40:47;100506.88;;;11.62;90.95
74778;BME280;63298;53.164;8.610;2023-11-19T06:43:12;100512.16;;;11.63;90.77
74778;BME280;63298;53.164;8.610;2023-11-19T06:45:38;100522.69;;;11.66;90.78
74778;BME280;63298;53.164;8.610;2023-11-19T06:48:04;100523.41;;;11.74;90.50
74778;BME280;63298;53.164;8.610;2023-11-19T06:50:30;100519.16;;;11.71;90.54
74778;BME280;63298;53.164;8.610;2023-11-19T06:52:55;100529.56;;;11.81;90.13
74778;BME280;63298;53.164;8.610;2023-11-19T06:55:21;100519.53;;;11.75;90.23
74778;BME280;63298;53.164;8.610;2023-11-19T06:57:46;100513.44;;;11.73;90.16
74778;BME280;63298;53.164;8.610;2023-11-19T07:00:12;100530.84;;;11.73;89.80
74778;BME280;63298;53.164;8.610;2023-11-19T07:02:37;100527.13;;;11.67;90.07
74778;BME280;63298;53.164;8.610;2023-11-19T07:05:03;100518.50;;;11.64;90.48
74778;BME280;63298;53.164;8.610;2023-11-19T07:07:30;100519.31;;;11.64;90.25
74778;BME280;63298;53.164;8.610;2023-11-19T07:09:55;100535.97;;;11.69;90.46
74778;BME280;63298;53.164;8.610;2023-11-19T07:12:21;100519.25;;;11.59;90.53
74778;BME280;63298;53.164;8.610;2023-11-19T07:14:46;100528.81;;;11.68;89.95
74778;BME280;63298;53.164;8.610;2023-11-19T07:17:12;100549.69;;;11.76;90.31
74778;BME280;63298;53.164;8.610;2023-11-19T07:19:40;100549.00;;;11.69;90.01
74778;BME280;63298;53.164;8.610;2023-11-19T07:22:07;100542.88;;;11.67;89.89
74778;BME280;63298;53.164;8.610;2023-11-19T07:24:33;100538.75;;;11.69;89.58
74778;BME280;63298;53.164;8.610;2023-11-19T07:26:58;100525.97;;;11.63;89.38
74778;BME280;63298;53.164;8.610;2023-11-19T07:29:24;100542.09;;;11.72;89.64
74778;BME280;63298;53.164;8.610;2023-11-19T07:31:49;100544.53;;;11.68;89.63
74778;BME280;63298;53.164;8.610;2023-11-19T07:34:15;100538.94;;;11.63;89.52
74778;BME280;63298;53.164;8.610;2023-11-19T07:36:40;100544.28;;;11.69;89.09
74778;BME280;63298;53.164;8.610;2023-11-19T07:39:06;100543.19;;;11.70;89.35
74778;BME280;63298;53.164;8.610;2023-11-19T07:41:32;100552.19;;;11.78;88.87
74778;BME280;63298;53.164;8.610;2023-11-19T07:43:57;100564.75;;;11.85;88.92
74778;BME280;63298;53.164;8.610;2023-11-19T07:46:23;100548.59;;;11.77;88.62
74778;BME280;63298;53.164;8.610;2023-11-19T07:48:48;100557.03;;;11.87;88.50
74778;BME280;63298;53.164;8.610;2023-11-19T07:51:14;100558.22;;;11.91;88.39
74778;BME280;63298;53.164;8.610;2023-11-19T07:53:40;100560.06;;;11.86;88.20
74778;BME280;63298;53.164;8.610;2023-11-19T07:56:09;100567.78;;;11.84;88.28
74778;BME280;63298;53.164;8.610;2023-11-19T07:58:35;100555.88;;;11.83;88.20
74778;BME280;63298;53.164;8.610;2023-11-19T08:01:00;100561.72;;;11.87;88.48
74778;BME280;63298;53.164;8.610;2023-11-19T08:03:26;100558.03;;;11.81;87.94
74778;BME280;63298;53.164;8.610;2023-11-19T08:05:51;100564.25;;;11.88;88.25
74778;BME280;63298;53.164;8.610;2023-11-19T08:08:17;100578.41;;;11.92;88.04
74778;BME280;63298;53.164;8.610;2023-11-19T08:10:42;100560.56;;;11.83;88.08
74778;BME280;63298;53.164;8.610;2023-11-19T08:13:08;100588.69;;;11.96;87.90
74778;BME280;63298;53.164;8.610;2023-11-19T08:15:33;100572.19;;;11.85;87.87
74778;BME280;63298;53.164;8.610;2023-11-19T08:17:59;100577.31;;;11.93;87.74
74778;BME280;63298;53.164;8.610;2023-11-19T08:20:24;100594.47;;;11.95;87.53
74778;BME280;63298;53.164;8.610;2023-11-19T08:22:50;100588.09;;;11.94;87.54
74778;BME280;63298;53.164;8.610;2023-11-19T08:25:15;100592.22;;;11.92;87.07
74778;BME280;63298;53.164;8.610;2023-11-19T08:27:43;100600.59;;;11.97;86.80
74778;BME280;63298;53.164;8.610;2023-11-19T08:30:08;100606.78;;;12.04;87.18
74778;BME280;63298;53.164;8.610;2023-11-19T08:32:34;100601.25;;;12.04;86.98
74778;BME280;63298;53.164;8.610;2023-11-19T08:35:00;100578.56;;;12.02;86.96
74778;BME280;63298;53.164;8.610;2023-11-19T08:37:26;100618.00;;;12.14;86.45
74778;BME280;63298;53.164;8.610;2023-11-19T08:39:51;100601.69;;;12.13;86.91
74778;BME280;63298;53.164;8.610;2023-11-19T08:42:17;100598.06;;;12.12;86.68
74778;BME280;63298;53.164;8.610;2023-11-19T08:44:51;100593.31;;;12.07;86.33
74778;BME280;63298;53.164;8.610;2023-11-19T08:47:17;100604.75;;;12.16;86.23
74778;BME280;63298;53.164;8.610;2023-11-19T08:49:45;100621.69;;;12.20;85.99
74778;BME280;63298;53.164;8.610;2023-11-19T08:52:11;100602.84;;;12.17;85.93
74778;BME280;63298;53.164;8.610;2023-11-19T08:54:36;100603.09;;;12.15;85.85
74778;BME280;63298;53.164;8.610;2023-11-19T08:57:03;100603.91;;;12.16;85.94
74778;BME280;63298;53.164;8.610;2023-11-19T08:59:29;100611.47;;;12.20;85.72
74778;BME280;63298;53.164;8.610;2023-11-19T09:01:54;100623.34;;;12.21;85.30
74778;BME280;63298;53.164;8.610;2023-11-19T09:04:20;100608.44;;;12.22;85.49
74778;BME280;63298;53.164;8.610;2023-11-19T09:06:45;100612.91;;;12.23;85.50
74778;BME280;63298;53.164;8.610;2023-11-19T09:50:06;100638.34;;;12.41;84.60
74778;BME280;63298;53.164;8.610;2023-11-19T10:13:01;100635.84;;;12.23;85.06
74778;BME280;63298;53.164;8.610;2023-11-19T10:15:27;100638.63;;;12.23;85.28
74778;BME280;63298;53.164;8.610;2023-11-19T10:17:56;100629.66;;;12.16;85.18
74778;BME280;63298;53.164;8.610;2023-11-19T10:54:05;100623.28;;;12.16;86.40
74778;BME280;63298;53.164;8.610;2023-11-19T11:00:24;100642.63;;;12.32;86.49
74778;BME280;63298;53.164;8.610;2023-11-19T11:13:07;100633.56;;;12.37;86.14
74778;BME280;63298;53.164;8.610;2023-11-19T11:15:34;100629.38;;;12.34;85.82
74778;BME280;63298;53.164;8.610;2023-11-19T11:18:01;100625.00;;;12.38;85.78
74778;BME280;63298;53.164;8.610;2023-11-19T11:20:28;100618.22;;;12.46;85.63
74778;BME280;63298;53.164;8.610;2023-11-19T11:26:29;100633.66;;;12.64;85.49
74778;BME280;63298;53.164;8.610;2023-11-19T11:29:04;100634.72;;;12.58;85.34
74778;BME280;63298;53.164;8.610;2023-11-19T11:37:38;100638.97;;;12.48;85.58
74778;BME280;63298;53.164;8.610;2023-11-19T11:40:14;100638.91;;;12.43;85.49
74778;BME280;63298;53.164;8.610;2023-11-19T11:42:39;100625.84;;;12.39;86.04
74778;BME280;63298;53.164;8.610;2023-11-19T11:45:09;100615.03;;;12.37;86.06
74778;BME280;63298;53.164;8.610;2023-11-19T11:50:19;100628.19;;;12.47;85.47
74778;BME280;63298;53.164;8.610;2023-11-19T11:57:57;100631.53;;;12.49;85.13
74778;BME280;63298;53.164;8.610;2023-11-19T12:02:55;100629.28;;;12.46;85.00
74778;BME280;63298;53.164;8.610;2023-11-19T12:05:21;100633.72;;;12.47;85.21
74778;BME280;63298;53.164;8.610;2023-11-19T12:07:57;100613.38;;;12.36;85.15
74778;BME280;63298;53.164;8.610;2023-11-19T12:10:25;100608.06;;;12.35;85.29
74778;BME280;63298;53.164;8.610;2023-11-19T12:12:57;100606.16;;;12.35;85.42
74778;BME280;63298;53.164;8.610;2023-11-19T12:15:23;100617.81;;;12.37;85.17
74778;BME280;63298;53.164;8.610;2023-11-19T12:28:30;100635.56;;;12.41;85.52
74778;BME280;63298;53.164;8.610;2023-11-19T12:31:08;100619.91;;;12.30;85.44
74778;BME280;63298;53.164;8.610;2023-11-19T12:33:35;100636.91;;;12.39;85.68
74778;BME280;63298;53.164;8.610;2023-11-19T12:36:01;100620.56;;;12.37;85.23
74778;BME280;63298;53.164;8.610;2023-11-19T12:38:29;100604.16;;;12.31;85.42
74778;BME280;63298;53.164;8.610;2023-11-19T12:41:08;100620.56;;;12.37;85.40
74778;BME280;63298;53.164;8.610;2023-11-19T12:43:49;100607.09;;;12.24;84.88
74778;BME280;63298;53.164;8.610;2023-11-19T12:46:27;100617.75;;;12.32;85.13
74778;BME280;63298;53.164;8.610;2023-11-19T12:49:01;100619.06;;;12.30;84.71
74778;BME280;63298;53.164;8.610;2023-11-19T12:51:39;100615.06;;;12.21;85.33
74778;BME280;63298;53.164;8.610;2023-11-19T12:54:07;100601.91;;;12.11;85.44
74778;BME280;63298;53.164;8.610;2023-11-19T12:56:39;100626.38;;;12.19;86.02
74778;BME280;63298;53.164;8.610;2023-11-19T12:59:57;100606.38;;;11.95;85.17
74778;BME280;63298;53.164;8.610;2023-11-19T13:03:00;100622.56;;;12.03;84.91
74778;BME280;63298;53.164;8.610;2023-11-19T13:08:08;100605.59;;;12.00;84.77
74778;BME280;63298;53.164;8.610;2023-11-19T13:11:00;100601.59;;;11.91;85.08
74778;BME280;63298;53.164;8.610;2023-11-19T13:13:29;100588.00;;;11.89;85.02
74778;BME280;63298;53.164;8.610;2023-11-19T13:16:45;100585.59;;;11.93;84.45
74778;BME280;63298;53.164;8.610;2023-11-19T13:19:17;100590.38;;;11.97;84.87
74778;BME280;63298;53.164;8.610;2023-11-19T13:22:12;100580.81;;;12.05;84.06
74778;BME280;63298;53.164;8.610;2023-11-19T13:24:40;100584.00;;;12.14;84.21
74778;BME280;63298;53.164;8.610;2023-11-19T13:30:48;100599.47;;;12.31;83.88
74778;BME280;63298;53.164;8.610;2023-11-19T13:33:16;100594.78;;;12.32;83.37
74778;BME280;63298;53.164;8.610;2023-11-19T13:35:41;100602.63;;;12.40;83.20
74778;BME280;63298;53.164;8.610;2023-11-19T13:38:13;100587.88;;;12.34;83.38
74778;BME280;63298;53.164;8.610;2023-11-19T13:40:41;100596.09;;;12.29;82.62
74778;BME280;63298;53.164;8.610;2023-11-19T13:43:07;100595.19;;;12.24;82.69
74778;BME280;63298;53.164;8.610;2023-11-19T13:45:47;100604.31;;;12.24;82.88
74778;BME280;63298;53.164;8.610;2023-11-19T13:48:21;100600.16;;;12.22;82.49
74778;BME280;63298;53.164;8.610;2023-11-19T13:50:59;100588.34;;;12.09;82.71
74778;BME280;63298;53.164;8.610;2023-11-19T13:53:30;100602.25;;;12.15;83.12
74778;BME280;63298;53.164;8.610;2023-11-19T13:56:04;100595.72;;;12.04;82.49
74778;BME280;63298;53.164;8.610;2023-11-19T13:59:00;100603.28;;;12.08;82.69
74778;BME280;63298;53.164;8.610;2023-11-19T14:01:28;100594.63;;;12.05;83.23
74778;BME280;63298;53.164;8.610;2023-11-19T14:03:57;100586.84;;;12.02;83.32
74778;BME280;63298;53.164;8.610;2023-11-19T14:06:25;100589.09;;;12.05;83.08
74778;BME280;63298;53.164;8.610;2023-11-19T14:09:03;100599.66;;;12.08;83.19
74778;BME280;63298;53.164;8.610;2023-11-19T14:11:48;100583.00;;;12.03;83.17
74778;BME280;63298;53.164;8.610;2023-11-19T14:14:56;100600.59;;;12.14;83.29
74778;BME280;63298;53.164;8.610;2023-11-19T14:17:38;100588.84;;;12.06;83.26
74778;BME280;63298;53.164;8.610;2023-11-19T14:20:03;100584.81;;;12.14;83.43
74778;BME280;63298;53.164;8.610;2023-11-19T14:22:38;100590.84;;;12.11;83.63
74778;BME280;63298;53.164;8.610;2023-11-19T14:25:08;100588.09;;;12.11;83.63
74778;BME280;63298;53.164;8.610;2023-11-19T14:27:44;100591.03;;;12.04;84.31
74778;BME280;63298;53.164;8.610;2023-11-19T14:30:25;100602.94;;;12.05;84.73
74778;BME280;63298;53.164;8.610;2023-11-19T14:35:34;100590.09;;;11.99;84.47
74778;BME280;63298;53.164;8.610;2023-11-19T14:38:08;100587.53;;;11.92;84.89
74778;BME280;63298;53.164;8.610;2023-11-19T14:40:38;100587.53;;;11.92;84.76
74778;BME280;63298;53.164;8.610;2023-11-19T14:43:04;100599.75;;;11.96;85.04
74778;BME280;63298;53.164;8.610;2023-11-19T14:45:29;100600.16;;;12.05;84.74
74778;BME280;63298;53.164;8.610;2023-11-19T14:47:57;100606.78;;;12.04;84.39
74778;BME280;63298;53.164;8.610;2023-11-19T14:50:25;100599.91;;;12.06;84.61
74778;BME280;63298;53.164;8.610;2023-11-19T14:52:50;100599.59;;;12.03;84.52
74778;BME280;63298;53.164;8.610;2023-11-19T14:55:16;100611.72;;;12.02;84.71
74778;BME280;63298;53.164;8.610;2023-11-19T14:57:43;100599.59;;;12.03;84.52
74778;BME280;63298;53.164;8.610;2023-11-19T15:00:09;100600.69;;;12.02;84.19
74778;BME280;63298;53.164;8.610;2023-11-19T15:02:37;100597.91;;;12.02;83.92
74778;BME280;63298;53.164;8.610;2023-11-19T15:05:02;100601.75;;;12.01;84.04
74778;BME280;63298;53.164;8.610;2023-11-19T15:07:27;100591.13;;;11.93;84.32
74778;BME280;63298;53.164;8.610;2023-11-19T15:09:53;100600.59;;;11.97;84.09
74778;BME280;63298;53.164;8.610;2023-11-19T15:12:18;100600.28;;;11.93;84.09
74778;BME280;63298;53.164;8.610;2023-11-19T15:14:43;100605.44;;;11.90;84.01
74778;BME280;63298;53.164;8.610;2023-11-19T15:17:09;100617.34;;;11.90;83.65
74778;BME280;63298;53.164;8.610;2023-11-19T15:19:34;100614.34;;;11.92;84.49
74778;BME280;63298;53.164;8.610;2023-11-19T15:22:00;100614.34;;;11.92;84.29
74778;BME280;63298;53.164;8.610;2023-11-19T15:24:25;100612.66;;;11.91;84.68
74778;BME280;63298;53.164;8.610;2023-11-19T15:26:50;100620.94;;;11.91;84.57